createdAt,value
2019-04-25T00:00:38.823Z,0.00
2019-04-25T00:01:38.826Z,0.00
2019-04-25T00:02:38.801Z,0.00
2019-04-25T00:03:38.800Z,0.00
2019-04-25T00:04:38.805Z,0.00
2019-04-25T00:05:38.796Z,0.00
2019-04-25T00:06:38.773Z,0.00
2019-04-25T00:07:38.781Z,0.00
2019-04-25T00:08:38.830Z,0.00
2019-04-25T00:09:38.997Z,0.00
2019-04-25T00:10:39.195Z,0.00
2019-04-25T00:11:39.300Z,0.00
2019-04-25T00:12:39.399Z,0.00
2019-04-25T00:13:39.635Z,0.00
2019-04-25T00:14:39.569Z,0.00
2019-04-25T00:15:38.660Z,0.00
2019-04-25T00:16:38.693Z,0.00
2019-04-25T00:17:38.655Z,0.00
2019-04-25T00:18:38.699Z,0.00
2019-04-25T00:19:38.773Z,0.00
2019-04-25T00:20:38.934Z,0.00
2019-04-25T00:21:39.234Z,0.00
2019-04-25T00:22:39.307Z,0.00
2019-04-25T00:23:39.367Z,0.00
2019-04-25T00:24:39.627Z,0.00
2019-04-25T00:25:38.559Z,0.00
2019-04-25T00:26:38.550Z,0.00
2019-04-25T00:27:38.532Z,0.00
2019-04-25T00:28:38.523Z,0.00
2019-04-25T00:29:38.526Z,0.00
2019-04-25T00:30:38.511Z,0.00
2019-04-25T00:31:38.486Z,0.00
2019-04-25T00:32:38.482Z,0.00
2019-04-25T00:33:38.467Z,0.00
2019-04-25T00:34:38.462Z,0.00
2019-04-25T00:35:38.483Z,0.00
2019-04-25T00:36:39.122Z,0.00
2019-04-25T00:37:38.432Z,0.00
2019-04-25T00:38:38.411Z,0.00
2019-04-25T00:39:38.413Z,0.00
2019-04-25T00:40:38.401Z,0.00
2019-04-25T00:41:38.419Z,0.00
2019-04-25T00:42:38.371Z,0.00
2019-04-25T00:43:38.364Z,0.00
2019-04-25T00:44:38.355Z,0.00
2019-04-25T00:45:38.344Z,0.00
2019-04-25T00:46:38.333Z,0.00
2019-04-25T00:47:38.323Z,0.00
2019-04-25T00:48:38.314Z,0.00
2019-04-25T00:49:38.300Z,0.00
2019-04-25T00:50:38.284Z,0.00
2019-04-25T00:51:38.285Z,0.00
2019-04-25T00:52:38.276Z,0.00
2019-04-25T00:53:38.253Z,0.00
2019-04-25T00:54:38.239Z,0.00
2019-04-25T00:55:38.230Z,0.00
2019-04-25T00:56:38.225Z,0.00
2019-04-25T00:57:38.221Z,0.00
2019-04-25T00:58:38.206Z,0.00
2019-04-25T00:59:38.189Z,0.00
2019-04-25T01:00:38.177Z,0.00
2019-04-25T01:01:38.173Z,0.00
2019-04-25T01:02:38.188Z,0.00
2019-04-25T01:03:38.159Z,0.00
2019-04-25T01:04:38.135Z,0.00
2019-04-25T01:05:38.128Z,0.00
2019-04-25T01:06:38.112Z,0.00
2019-04-25T01:07:38.101Z,0.00
2019-04-25T01:08:38.104Z,0.00
2019-04-25T01:09:38.082Z,0.00
2019-04-25T01:10:38.079Z,0.00
2019-04-25T01:11:38.060Z,0.00
2019-04-25T01:12:38.054Z,0.00
2019-04-25T01:13:38.049Z,0.00
2019-04-25T01:14:38.030Z,0.00
2019-04-25T01:15:38.020Z,0.00
2019-04-25T01:16:38.008Z,0.00
2019-04-25T01:17:37.996Z,0.00
2019-04-25T01:18:37.983Z,0.00
2019-04-25T01:19:37.995Z,0.00
2019-04-25T01:20:37.962Z,0.00
2019-04-25T01:21:37.952Z,0.00
2019-04-25T01:22:37.956Z,0.00
2019-04-25T01:23:37.935Z,0.00
2019-04-25T01:24:37.938Z,0.00
2019-04-25T01:25:42.256Z,0.00
2019-04-25T01:26:37.916Z,0.00
2019-04-25T01:27:37.894Z,0.00
2019-04-25T01:28:37.883Z,0.00
2019-04-25T01:29:37.883Z,0.00
2019-04-25T01:30:37.860Z,0.00
2019-04-25T01:31:37.850Z,0.00
2019-04-25T01:32:37.843Z,0.00
2019-04-25T01:33:37.826Z,0.00
2019-04-25T01:34:37.819Z,0.00
2019-04-25T01:35:37.810Z,0.00
2019-04-25T01:36:37.809Z,0.00
2019-04-25T01:37:37.781Z,0.00
2019-04-25T01:38:37.771Z,0.00
2019-04-25T01:39:37.761Z,0.00
2019-04-25T01:40:37.751Z,0.00
2019-04-25T01:41:37.751Z,0.00
2019-04-25T01:42:37.736Z,0.00
2019-04-25T01:43:37.726Z,0.00
2019-04-25T01:44:37.705Z,0.00
2019-04-25T01:45:37.700Z,0.00
2019-04-25T01:46:37.735Z,0.00
2019-04-25T01:47:37.681Z,0.00
2019-04-25T01:48:37.670Z,0.00
2019-04-25T01:49:37.660Z,0.00
2019-04-25T01:50:37.650Z,0.00
2019-04-25T01:51:37.657Z,0.00
2019-04-25T01:52:37.627Z,0.00
2019-04-25T01:53:37.610Z,0.00
2019-04-25T01:54:37.606Z,0.00
2019-04-25T01:55:37.591Z,0.00
2019-04-25T01:56:37.584Z,0.00
2019-04-25T01:57:37.577Z,0.00
2019-04-25T01:58:37.558Z,0.00
2019-04-25T01:59:37.546Z,0.00
2019-04-25T02:00:37.540Z,0.00
2019-04-25T02:01:37.547Z,0.00
2019-04-25T02:02:37.553Z,0.00
2019-04-25T02:03:37.509Z,0.00
2019-04-25T02:04:37.500Z,0.00
2019-04-25T02:05:37.487Z,0.00
2019-04-25T02:06:37.483Z,0.00
2019-04-25T02:07:37.467Z,0.00
2019-04-25T02:08:37.475Z,0.00
2019-04-25T02:09:37.446Z,0.00
2019-04-25T02:10:37.429Z,0.00
2019-04-25T02:11:37.423Z,0.00
2019-04-25T02:12:37.413Z,0.00
2019-04-25T02:13:37.405Z,0.00
2019-04-25T02:14:37.401Z,0.00
2019-04-25T02:15:37.380Z,0.00
2019-04-25T02:16:37.375Z,0.00
2019-04-25T02:17:37.354Z,0.00
2019-04-25T02:18:37.348Z,0.00
2019-04-25T02:19:37.345Z,0.00
2019-04-25T02:20:39.006Z,0.00
2019-04-25T02:21:37.320Z,0.00
2019-04-25T02:22:37.306Z,0.00
2019-04-25T02:23:37.303Z,0.00
2019-04-25T02:24:37.285Z,0.00
2019-04-25T02:25:37.282Z,0.00
2019-04-25T02:26:37.263Z,0.00
2019-04-25T02:27:37.252Z,0.00
2019-04-25T02:28:37.236Z,0.00
2019-04-25T02:29:37.239Z,0.00
2019-04-25T02:30:37.223Z,0.00
2019-04-25T02:31:37.209Z,0.00
2019-04-25T02:32:37.422Z,0.00
2019-04-25T02:33:37.196Z,0.00
2019-04-25T02:34:37.174Z,0.00
2019-04-25T02:35:37.179Z,0.00
2019-04-25T02:36:37.163Z,0.00
2019-04-25T02:37:37.142Z,0.00
2019-04-25T02:38:37.131Z,0.00
2019-04-25T02:39:37.618Z,0.00
2019-04-25T02:40:37.112Z,0.00
2019-04-25T02:41:37.105Z,0.00
2019-04-25T02:42:37.118Z,0.00
2019-04-25T02:43:37.080Z,0.00
2019-04-25T02:44:37.070Z,0.00
2019-04-25T02:45:37.068Z,0.00
2019-04-25T02:46:37.389Z,0.00
2019-04-25T02:47:37.040Z,0.00
2019-04-25T02:48:37.049Z,0.00
2019-04-25T02:49:39.695Z,0.00
2019-04-25T02:50:37.001Z,0.00
2019-04-25T02:51:36.996Z,0.00
2019-04-25T02:52:36.983Z,0.00
2019-04-25T02:53:37.560Z,0.00
2019-04-25T02:54:36.967Z,0.00
2019-04-25T02:55:37.780Z,0.00
2019-04-25T02:56:38.929Z,0.00
2019-04-25T02:57:36.927Z,0.00
2019-04-25T02:58:36.918Z,0.00
2019-04-25T02:59:37.317Z,0.00
2019-04-25T03:00:51.787Z,0.00
2019-04-25T03:01:37.886Z,0.00
2019-04-25T03:02:37.176Z,0.00
2019-04-25T03:03:36.875Z,0.00
2019-04-25T03:04:36.875Z,0.00
2019-04-25T03:05:36.868Z,0.00
2019-04-25T03:06:36.855Z,0.00
2019-04-25T03:07:36.892Z,0.00
2019-04-25T03:08:36.813Z,0.00
2019-04-25T03:09:36.830Z,0.00
2019-04-25T03:10:36.784Z,0.00
2019-04-25T03:11:36.780Z,0.00
2019-04-25T03:12:37.017Z,0.00
2019-04-25T03:13:36.754Z,0.00
2019-04-25T03:14:36.747Z,0.00
2019-04-25T03:15:36.767Z,0.00
2019-04-25T03:16:36.724Z,0.00
2019-04-25T03:17:36.716Z,0.00
2019-04-25T03:18:36.715Z,0.00
2019-04-25T03:19:36.693Z,0.00
2019-04-25T03:20:36.699Z,0.00
2019-04-25T03:21:36.687Z,0.00
2019-04-25T03:22:36.660Z,0.00
2019-04-25T03:23:36.655Z,0.00
2019-04-25T03:24:36.638Z,0.00
2019-04-25T03:25:36.621Z,0.00
2019-04-25T03:26:40.433Z,0.00
2019-04-25T03:27:36.606Z,0.00
2019-04-25T03:28:36.589Z,0.00
2019-04-25T03:29:36.578Z,0.00
2019-04-25T03:30:36.578Z,0.00
2019-04-25T03:31:36.573Z,0.00
2019-04-25T03:32:36.570Z,0.00
2019-04-25T03:33:38.344Z,0.00
2019-04-25T03:34:36.532Z,0.00
2019-04-25T03:35:36.513Z,0.00
2019-04-25T03:36:36.525Z,0.00
2019-04-25T03:37:36.499Z,0.00
2019-04-25T03:38:36.513Z,0.00
2019-04-25T03:39:36.473Z,0.00
2019-04-25T03:40:36.460Z,0.00
2019-04-25T03:41:36.450Z,0.00
2019-04-25T03:42:36.448Z,0.00
2019-04-25T03:43:36.434Z,0.00
2019-04-25T03:44:36.414Z,0.00
2019-04-25T03:45:36.404Z,0.00
2019-04-25T03:46:36.400Z,0.00
2019-04-25T03:47:36.393Z,0.00
2019-04-25T03:48:37.012Z,0.00
2019-04-25T03:49:36.361Z,0.00
2019-04-25T03:50:36.357Z,0.00
2019-04-25T03:51:36.345Z,0.00
2019-04-25T03:52:36.336Z,0.00
2019-04-25T03:53:36.375Z,0.00
2019-04-25T03:54:36.312Z,0.00
2019-04-25T03:55:36.302Z,0.00
2019-04-25T03:56:36.289Z,0.00
2019-04-25T03:57:36.281Z,0.00
2019-04-25T03:58:36.276Z,0.00
2019-04-25T03:59:36.274Z,0.00
2019-04-25T04:00:36.497Z,0.00
2019-04-25T04:01:36.230Z,5.62
2019-04-25T04:02:36.225Z,5.62
2019-04-25T04:03:36.208Z,5.62
2019-04-25T04:04:36.203Z,5.62
2019-04-25T04:05:36.203Z,5.62
2019-04-25T04:06:36.191Z,5.62
2019-04-25T04:07:36.184Z,5.62
2019-04-25T04:08:36.158Z,5.62
2019-04-25T04:09:36.150Z,5.62
2019-04-25T04:10:36.180Z,5.62
2019-04-25T04:11:36.127Z,5.62
2019-04-25T04:12:36.144Z,5.62
2019-04-25T04:13:36.106Z,5.62
2019-04-25T04:14:36.087Z,5.62
2019-04-25T04:15:36.083Z,5.62
2019-04-25T04:16:36.090Z,5.62
2019-04-25T04:17:36.062Z,11.25
2019-04-25T04:18:36.048Z,11.25
2019-04-25T04:19:36.034Z,11.25
2019-04-25T04:20:36.028Z,11.25
2019-04-25T04:21:36.022Z,11.25
2019-04-25T04:22:36.029Z,11.25
2019-04-25T04:23:36.000Z,11.25
2019-04-25T04:24:35.983Z,11.25
2019-04-25T04:25:35.968Z,11.25
2019-04-25T04:26:35.993Z,11.25
2019-04-25T04:27:35.946Z,11.25
2019-04-25T04:28:35.941Z,11.25
2019-04-25T04:29:35.929Z,11.25
2019-04-25T04:30:35.918Z,11.25
2019-04-25T04:31:35.905Z,11.25
2019-04-25T04:32:35.907Z,11.25
2019-04-25T04:33:35.905Z,16.88
2019-04-25T04:34:35.878Z,16.88
2019-04-25T04:35:35.872Z,16.88
2019-04-25T04:36:35.854Z,16.88
2019-04-25T04:37:35.839Z,16.88
2019-04-25T04:38:35.920Z,16.88
2019-04-25T04:39:35.864Z,16.88
2019-04-25T04:40:36.195Z,16.88
2019-04-25T04:41:35.801Z,16.88
2019-04-25T04:42:35.791Z,16.88
2019-04-25T04:43:35.779Z,16.88
2019-04-25T04:44:35.770Z,16.88
2019-04-25T04:45:35.812Z,22.50
2019-04-25T04:46:35.745Z,22.50
2019-04-25T04:47:35.734Z,22.50
2019-04-25T04:48:35.721Z,22.50
2019-04-25T04:49:35.714Z,22.50
2019-04-25T04:50:35.706Z,22.50
2019-04-25T04:51:35.700Z,22.50
2019-04-25T04:52:35.688Z,28.12
2019-04-25T04:53:35.884Z,28.12
2019-04-25T04:54:35.658Z,28.12
2019-04-25T04:55:35.660Z,28.12
2019-04-25T04:56:35.645Z,28.12
2019-04-25T04:57:36.256Z,33.75
2019-04-25T04:58:35.621Z,33.75
2019-04-25T04:59:35.607Z,33.75
2019-04-25T05:00:35.606Z,39.38
2019-04-25T05:01:35.607Z,45.00
2019-04-25T05:02:35.583Z,45.00
2019-04-25T05:03:35.559Z,45.00
2019-04-25T05:04:35.555Z,56.25
2019-04-25T05:05:35.543Z,39.38
2019-04-25T05:06:35.528Z,45.00
2019-04-25T05:07:35.527Z,45.00
2019-04-25T05:08:35.509Z,56.25
2019-04-25T05:09:35.503Z,56.25
2019-04-25T05:10:35.488Z,56.25
2019-04-25T05:11:35.482Z,56.25
2019-04-25T05:12:35.477Z,61.88
2019-04-25T05:13:35.470Z,61.88
2019-04-25T05:14:35.447Z,61.88
2019-04-25T05:15:35.443Z,61.88
2019-04-25T05:16:35.429Z,61.88
2019-04-25T05:17:35.417Z,45.00
2019-04-25T05:18:39.587Z,45.00
2019-04-25T05:19:35.393Z,39.38
2019-04-25T05:20:35.599Z,45.00
2019-04-25T05:21:35.385Z,50.62
2019-04-25T05:22:35.359Z,56.25
2019-04-25T05:23:35.370Z,56.25
2019-04-25T05:24:35.335Z,78.75
2019-04-25T05:25:35.332Z,73.12
2019-04-25T05:26:35.325Z,73.12
2019-04-25T05:27:46.348Z,73.12
2019-04-25T05:28:36.318Z,90.00
2019-04-25T05:29:35.280Z,95.62
2019-04-25T05:30:35.275Z,101.25
2019-04-25T05:31:35.269Z,101.25
2019-04-25T05:32:35.275Z,106.88
2019-04-25T05:33:35.241Z,101.25
2019-04-25T05:34:35.232Z,101.25
2019-04-25T05:35:35.213Z,101.25
2019-04-25T05:36:35.203Z,101.25
2019-04-25T05:37:35.206Z,101.25
2019-04-25T05:38:35.186Z,101.25
2019-04-25T05:39:35.206Z,101.25
2019-04-25T05:40:35.161Z,101.25
2019-04-25T05:41:35.964Z,106.88
2019-04-25T05:42:35.144Z,106.88
2019-04-25T05:43:35.131Z,112.50
2019-04-25T05:44:35.123Z,112.50
2019-04-25T05:45:35.128Z,118.12
2019-04-25T05:46:35.101Z,123.75
2019-04-25T05:47:35.084Z,123.75
2019-04-25T05:48:35.076Z,129.38
2019-04-25T05:49:35.065Z,129.38
2019-04-25T05:50:35.080Z,129.38
2019-04-25T05:51:35.047Z,129.38
2019-04-25T05:52:35.031Z,129.38
2019-04-25T05:53:35.018Z,135.00
2019-04-25T05:54:35.016Z,135.00
2019-04-25T05:55:35.010Z,135.00
2019-04-25T05:56:35.005Z,135.00
2019-04-25T05:57:45.459Z,135.00
2019-04-25T05:58:35.965Z,140.62
2019-04-25T05:59:34.958Z,146.25
2019-04-25T06:00:34.945Z,146.25
2019-04-25T06:01:35.802Z,146.25
2019-04-25T06:02:34.941Z,146.25
2019-04-25T06:03:34.915Z,151.88
2019-04-25T06:04:34.906Z,151.88
2019-04-25T06:05:34.891Z,157.50
2019-04-25T06:06:36.731Z,157.50
2019-04-25T06:07:34.875Z,151.88
2019-04-25T06:08:34.882Z,157.50
2019-04-25T06:09:35.833Z,157.50
2019-04-25T06:10:34.838Z,163.12
2019-04-25T06:11:34.827Z,163.12
2019-04-25T06:12:34.826Z,168.75
2019-04-25T06:13:34.806Z,174.38
2019-04-25T06:14:34.802Z,174.38
2019-04-25T06:15:34.792Z,168.75
2019-04-25T06:16:34.778Z,168.75
2019-04-25T06:17:34.770Z,168.75
2019-04-25T06:18:34.764Z,174.38
2019-04-25T06:19:34.754Z,157.50
2019-04-25T06:20:34.735Z,163.12
2019-04-25T06:21:34.718Z,180.00
2019-04-25T06:22:34.724Z,174.38
2019-04-25T06:23:34.711Z,174.38
2019-04-25T06:24:34.704Z,174.38
2019-04-25T06:25:39.451Z,180.00
2019-04-25T06:26:39.701Z,174.38
2019-04-25T06:27:35.196Z,174.38
2019-04-25T06:28:34.696Z,180.00
2019-04-25T06:29:34.932Z,185.62
2019-04-25T06:30:35.259Z,185.62
2019-04-25T06:31:34.615Z,185.62
2019-04-25T06:32:35.474Z,196.88
2019-04-25T06:33:34.644Z,202.50
2019-04-25T06:34:36.308Z,202.50
2019-04-25T06:35:35.874Z,208.12
2019-04-25T06:36:35.359Z,202.50
2019-04-25T06:37:35.128Z,202.50
2019-04-25T06:38:34.542Z,202.50
2019-04-25T06:39:34.543Z,213.75
2019-04-25T06:40:34.656Z,213.75
2019-04-25T06:41:35.381Z,219.38
2019-04-25T06:42:34.722Z,230.62
2019-04-25T06:43:34.489Z,236.25
2019-04-25T06:44:34.696Z,236.25
2019-04-25T06:45:34.604Z,236.25
2019-04-25T06:46:34.469Z,253.12
2019-04-25T06:47:34.469Z,241.88
2019-04-25T06:48:35.152Z,264.38
2019-04-25T06:49:36.518Z,264.38
2019-04-25T06:50:35.410Z,264.38
2019-04-25T06:51:34.405Z,258.75
2019-04-25T06:52:35.404Z,264.38
2019-04-25T06:53:34.734Z,258.75
2019-04-25T06:54:35.278Z,174.38
2019-04-25T06:55:34.420Z,219.38
2019-04-25T06:56:34.527Z,264.38
2019-04-25T06:57:34.341Z,258.75
2019-04-25T06:58:34.347Z,258.75
2019-04-25T06:59:34.564Z,157.50
2019-04-25T07:00:40.915Z,163.12
2019-04-25T07:01:35.296Z,151.88
2019-04-25T07:02:35.167Z,241.88
2019-04-25T07:03:35.596Z,213.75
2019-04-25T07:04:34.871Z,185.62
2019-04-25T07:05:40.182Z,208.12
2019-04-25T07:06:35.237Z,213.75
2019-04-25T07:07:35.217Z,213.75
2019-04-25T07:08:35.378Z,140.62
2019-04-25T07:09:34.930Z,202.50
2019-04-25T07:10:34.976Z,196.88
2019-04-25T07:11:34.936Z,191.25
2019-04-25T07:12:34.845Z,191.25
2019-04-25T07:13:38.304Z,191.25
2019-04-25T07:14:36.927Z,191.25
2019-04-25T07:15:35.252Z,196.88
2019-04-25T07:16:34.686Z,196.88
2019-04-25T07:17:35.015Z,196.88
2019-04-25T07:18:36.296Z,202.50
2019-04-25T07:19:35.493Z,202.50
2019-04-25T07:20:34.629Z,202.50
2019-04-25T07:21:35.413Z,208.12
2019-04-25T07:22:35.416Z,208.12
2019-04-25T07:23:34.611Z,208.12
2019-04-25T07:24:35.298Z,208.12
2019-04-25T07:25:35.393Z,208.12
2019-04-25T07:26:37.718Z,213.75
2019-04-25T07:27:35.624Z,213.75
2019-04-25T07:28:35.642Z,213.75
2019-04-25T07:29:34.633Z,213.75
2019-04-25T07:30:48.629Z,213.75
2019-04-25T07:31:35.699Z,219.38
2019-04-25T07:32:34.869Z,219.38
2019-04-25T07:33:35.033Z,219.38
2019-04-25T07:34:35.048Z,225.00
2019-04-25T07:35:34.691Z,225.00
2019-04-25T07:36:35.118Z,225.00
2019-04-25T07:37:36.113Z,225.00
2019-04-25T07:38:34.939Z,225.00
2019-04-25T07:39:34.463Z,225.00
2019-04-25T07:40:34.952Z,230.62
2019-04-25T07:41:34.286Z,230.62
2019-04-25T07:42:35.163Z,230.62
2019-04-25T07:43:34.888Z,230.62
2019-04-25T07:44:48.895Z,230.62
2019-04-25T07:45:36.152Z,230.62
2019-04-25T07:46:37.237Z,230.62
2019-04-25T07:47:35.481Z,230.62
2019-04-25T07:48:36.756Z,236.25
2019-04-25T07:49:34.831Z,236.25
2019-04-25T07:50:34.346Z,236.25
2019-04-25T07:51:34.602Z,236.25
2019-04-25T07:52:34.867Z,241.88
2019-04-25T07:53:34.823Z,241.88
2019-04-25T07:54:34.393Z,247.50
2019-04-25T07:55:36.312Z,247.50
2019-04-25T07:56:35.201Z,247.50
2019-04-25T07:57:34.899Z,247.50
2019-04-25T07:58:44.948Z,241.88
2019-04-25T07:59:35.987Z,253.12
2019-04-25T08:00:35.180Z,258.75
2019-04-25T08:01:36.623Z,258.75
2019-04-25T08:02:34.178Z,258.75
2019-04-25T08:03:34.387Z,258.75
2019-04-25T08:04:35.688Z,258.75
2019-04-25T08:05:35.326Z,264.38
2019-04-25T08:06:34.549Z,264.38
2019-04-25T08:07:34.837Z,264.38
2019-04-25T08:08:34.683Z,270.00
2019-04-25T08:09:35.248Z,270.00
2019-04-25T08:10:34.649Z,275.62
2019-04-25T08:11:34.799Z,275.62
2019-04-25T08:12:34.678Z,275.62
2019-04-25T08:13:34.280Z,281.25
2019-04-25T08:14:34.155Z,281.25
2019-04-25T08:15:33.912Z,286.88
2019-04-25T08:16:34.419Z,286.88
2019-04-25T08:17:34.650Z,298.12
2019-04-25T08:18:35.083Z,309.38
2019-04-25T08:19:34.377Z,309.38
2019-04-25T08:20:34.757Z,309.38
2019-04-25T08:21:34.413Z,326.25
2019-04-25T08:22:34.471Z,331.88
2019-04-25T08:23:36.721Z,337.50
2019-04-25T08:24:34.893Z,343.12
2019-04-25T08:25:36.245Z,348.75
2019-04-25T08:26:35.371Z,354.38
2019-04-25T08:27:34.348Z,376.88
2019-04-25T08:28:34.451Z,382.50
2019-04-25T08:29:37.656Z,354.38
2019-04-25T08:30:35.654Z,438.75
2019-04-25T08:31:34.888Z,438.75
2019-04-25T08:32:35.203Z,416.25
2019-04-25T08:33:34.559Z,483.75
2019-04-25T08:34:34.808Z,523.12
2019-04-25T08:35:34.211Z,551.25
2019-04-25T08:36:36.668Z,590.62
2019-04-25T08:37:35.399Z,652.50
2019-04-25T08:38:34.751Z,646.88
2019-04-25T08:39:34.059Z,675.00
2019-04-25T08:40:35.810Z,506.25
2019-04-25T08:41:34.787Z,444.38
2019-04-25T08:42:35.410Z,376.88
2019-04-25T08:43:36.352Z,483.75
2019-04-25T08:44:34.800Z,416.25
2019-04-25T08:45:35.267Z,236.25
2019-04-25T08:46:35.827Z,275.62
2019-04-25T08:47:34.886Z,219.38
2019-04-25T08:48:34.523Z,399.38
2019-04-25T08:49:34.745Z,551.25
2019-04-25T08:50:37.106Z,495.00
2019-04-25T08:51:34.919Z,990.00
2019-04-25T08:52:35.171Z,810.00
2019-04-25T08:53:35.147Z,1175.62
2019-04-25T08:54:35.377Z,1822.50
2019-04-25T08:55:34.936Z,2053.12
2019-04-25T08:56:34.933Z,1732.50
2019-04-25T08:57:34.119Z,1490.62
2019-04-25T08:58:35.288Z,1687.50
2019-04-25T08:59:40.070Z,1890.00
2019-04-25T09:00:35.720Z,1710.00
2019-04-25T09:01:36.550Z,1670.62
2019-04-25T09:02:36.045Z,1867.50
2019-04-25T09:03:34.666Z,1805.62
2019-04-25T09:04:34.791Z,1873.12
2019-04-25T09:05:35.181Z,2182.50
2019-04-25T09:06:35.055Z,2126.25
2019-04-25T09:07:35.444Z,2081.25
2019-04-25T09:08:35.615Z,2165.62
2019-04-25T09:09:35.357Z,2047.50
2019-04-25T09:10:35.794Z,1963.12
2019-04-25T09:11:34.807Z,2070.00
2019-04-25T09:12:35.601Z,2199.38
2019-04-25T09:13:35.390Z,2081.25
2019-04-25T09:14:34.902Z,2053.12
2019-04-25T09:15:35.651Z,2199.38
2019-04-25T09:16:34.413Z,2205.00
2019-04-25T09:17:35.477Z,2255.62
2019-04-25T09:18:35.730Z,2351.25
2019-04-25T09:19:33.607Z,2311.88
2019-04-25T09:20:34.870Z,2328.75
2019-04-25T09:21:35.278Z,2306.25
2019-04-25T09:22:36.103Z,2289.38
2019-04-25T09:23:34.309Z,2278.12
2019-04-25T09:24:33.494Z,2356.88
2019-04-25T09:25:34.519Z,2396.25
2019-04-25T09:26:34.919Z,2368.12
2019-04-25T09:27:34.350Z,2306.25
2019-04-25T09:28:35.058Z,2379.38
2019-04-25T09:29:34.231Z,2418.75
2019-04-25T09:30:34.923Z,2401.88
2019-04-25T09:31:34.572Z,2475.00
2019-04-25T09:32:33.804Z,2115.00
2019-04-25T09:33:35.166Z,1490.62
2019-04-25T09:34:33.569Z,1918.12
2019-04-25T09:35:33.535Z,2182.50
2019-04-25T09:36:33.598Z,2334.38
2019-04-25T09:37:33.568Z,2542.50
2019-04-25T09:38:34.795Z,2441.25
2019-04-25T09:39:33.840Z,2283.75
2019-04-25T09:40:34.195Z,2289.38
2019-04-25T09:41:33.586Z,2311.88
2019-04-25T09:42:33.815Z,2401.88
2019-04-25T09:43:33.509Z,2581.88
2019-04-25T09:44:32.624Z,2565.00
2019-04-25T09:45:33.493Z,2446.88
2019-04-25T09:46:34.090Z,2407.50
2019-04-25T09:47:33.546Z,2250.00
2019-04-25T09:48:34.337Z,2345.62
2019-04-25T09:49:33.902Z,2486.25
2019-04-25T09:50:33.999Z,2643.75
2019-04-25T09:51:33.583Z,2745.00
2019-04-25T09:52:34.040Z,2621.25
2019-04-25T09:53:34.826Z,2536.88
2019-04-25T09:54:33.402Z,2266.88
2019-04-25T09:55:33.997Z,2036.25
2019-04-25T09:56:33.859Z,2581.88
2019-04-25T09:57:33.495Z,2660.62
2019-04-25T09:58:33.824Z,2700.00
2019-04-25T09:59:33.218Z,2660.62
2019-04-25T10:00:33.441Z,2497.50
2019-04-25T10:01:33.873Z,2565.00
2019-04-25T10:02:32.446Z,2694.38
2019-04-25T10:03:33.341Z,2632.50
2019-04-25T10:04:34.464Z,2610.00
2019-04-25T10:05:33.865Z,2621.25
2019-04-25T10:06:33.289Z,2655.00
2019-04-25T10:07:32.399Z,2520.00
2019-04-25T10:08:32.388Z,2188.12
2019-04-25T10:09:33.762Z,2390.62
2019-04-25T10:10:32.366Z,1968.75
2019-04-25T10:11:33.510Z,1833.75
2019-04-25T10:12:41.389Z,2025.00
2019-04-25T10:13:33.750Z,2250.00
2019-04-25T10:14:39.383Z,2418.75
2019-04-25T10:15:39.962Z,2503.12
2019-04-25T10:16:40.233Z,2688.75
2019-04-25T10:17:41.178Z,2790.00
2019-04-25T10:18:41.253Z,2947.50
2019-04-25T10:19:39.336Z,2891.25
2019-04-25T10:20:33.372Z,2604.38
2019-04-25T10:21:40.159Z,2570.62
2019-04-25T10:22:40.335Z,2806.88
2019-04-25T10:23:39.838Z,2840.62
2019-04-25T10:24:32.250Z,2840.62
2019-04-25T10:25:33.421Z,2964.38
2019-04-25T10:26:39.829Z,2998.12
2019-04-25T10:27:32.202Z,2964.38
2019-04-25T10:28:33.564Z,2604.38
2019-04-25T10:29:41.707Z,2998.12
2019-04-25T10:30:34.317Z,2868.75
2019-04-25T10:31:33.822Z,2610.00
2019-04-25T10:32:33.561Z,2784.38
2019-04-25T10:33:32.153Z,3060.00
2019-04-25T10:34:33.333Z,2919.38
2019-04-25T10:35:40.874Z,2857.50
2019-04-25T10:36:33.669Z,2705.62
2019-04-25T10:37:33.928Z,2385.00
2019-04-25T10:38:34.835Z,2570.62
2019-04-25T10:39:33.837Z,2716.88
2019-04-25T10:40:33.708Z,2435.62
2019-04-25T10:41:35.393Z,2295.00
2019-04-25T10:42:32.067Z,2649.38
2019-04-25T10:43:32.097Z,2936.25
2019-04-25T10:44:33.694Z,3009.38
2019-04-25T10:45:32.035Z,3121.88
2019-04-25T10:46:33.925Z,3093.75
2019-04-25T10:47:33.465Z,2970.00
2019-04-25T10:48:32.013Z,2986.88
2019-04-25T10:49:32.013Z,3110.62
2019-04-25T10:50:32.012Z,2964.38
2019-04-25T10:51:31.978Z,2778.75
2019-04-25T10:52:33.703Z,3048.75
2019-04-25T10:53:33.728Z,3166.88
2019-04-25T10:54:34.964Z,2936.25
2019-04-25T10:55:31.946Z,2885.62
2019-04-25T10:56:33.478Z,3015.00
2019-04-25T10:57:31.923Z,3054.38
2019-04-25T10:58:33.466Z,3037.50
2019-04-25T10:59:31.922Z,3043.12
2019-04-25T11:00:32.077Z,2930.62
2019-04-25T11:01:33.756Z,2818.12
2019-04-25T11:02:33.786Z,2925.00
2019-04-25T11:03:33.411Z,2829.38
2019-04-25T11:04:31.858Z,2683.12
2019-04-25T11:05:31.855Z,3060.00
2019-04-25T11:06:33.462Z,3262.50
2019-04-25T11:07:31.835Z,3037.50
2019-04-25T11:08:31.831Z,2795.62
2019-04-25T11:09:31.810Z,2728.12
2019-04-25T11:10:31.843Z,2970.00
2019-04-25T11:11:31.791Z,3048.75
2019-04-25T11:12:33.659Z,2998.12
2019-04-25T11:13:31.774Z,2936.25
2019-04-25T11:14:31.779Z,2981.25
2019-04-25T11:15:31.769Z,3099.38
2019-04-25T11:16:33.193Z,3195.00
2019-04-25T11:17:31.751Z,3155.62
2019-04-25T11:18:31.732Z,3020.62
2019-04-25T11:19:31.719Z,2936.25
2019-04-25T11:20:31.727Z,3065.62
2019-04-25T11:21:33.305Z,3183.75
2019-04-25T11:22:31.719Z,3110.62
2019-04-25T11:23:31.691Z,3178.12
2019-04-25T11:24:31.674Z,3279.38
2019-04-25T11:25:31.663Z,3234.38
2019-04-25T11:26:34.426Z,3133.12
2019-04-25T11:27:31.668Z,3228.75
2019-04-25T11:28:31.663Z,3251.25
2019-04-25T11:29:31.626Z,3127.50
2019-04-25T11:30:31.619Z,3211.88
2019-04-25T11:31:31.662Z,3217.50
2019-04-25T11:32:31.609Z,2958.75
2019-04-25T11:33:31.594Z,3009.38
2019-04-25T11:34:31.599Z,3116.25
2019-04-25T11:35:31.583Z,3110.62
2019-04-25T11:36:31.574Z,3273.75
2019-04-25T11:37:31.559Z,3240.00
2019-04-25T11:38:31.561Z,3256.88
2019-04-25T11:39:31.548Z,3408.75
2019-04-25T11:40:31.538Z,3436.88
2019-04-25T11:41:31.519Z,3082.50
2019-04-25T11:42:31.509Z,2728.12
2019-04-25T11:43:31.507Z,2767.50
2019-04-25T11:44:31.504Z,3121.88
2019-04-25T11:45:31.489Z,3448.12
2019-04-25T11:46:32.967Z,3487.50
2019-04-25T11:47:31.473Z,3324.38
2019-04-25T11:48:31.459Z,3420.00
2019-04-25T11:49:31.487Z,3414.38
2019-04-25T11:50:31.443Z,3060.00
2019-04-25T11:51:31.437Z,2925.00
2019-04-25T11:52:31.422Z,3127.50
2019-04-25T11:53:31.432Z,3436.88
2019-04-25T11:54:31.400Z,3549.38
2019-04-25T11:55:31.426Z,3380.62
2019-04-25T11:56:31.388Z,3155.62
2019-04-25T11:57:31.373Z,3099.38
2019-04-25T11:58:31.373Z,2975.62
2019-04-25T11:59:31.376Z,2823.75
2019-04-25T12:00:31.363Z,3121.88
2019-04-25T12:01:31.354Z,3453.75
2019-04-25T12:02:31.335Z,3453.75
2019-04-25T12:03:31.323Z,3476.25
2019-04-25T12:04:31.315Z,3431.25
2019-04-25T12:05:31.304Z,3313.12
2019-04-25T12:06:31.311Z,3256.88
2019-04-25T12:07:31.287Z,2975.62
2019-04-25T12:08:31.274Z,2671.88
2019-04-25T12:09:31.269Z,2570.62
2019-04-25T12:10:31.260Z,2446.88
2019-04-25T12:11:31.263Z,2840.62
2019-04-25T12:12:31.241Z,3358.12
2019-04-25T12:13:31.239Z,3330.00
2019-04-25T12:14:31.229Z,3268.12
2019-04-25T12:15:31.212Z,3301.88
2019-04-25T12:16:31.211Z,3009.38
2019-04-25T12:17:31.201Z,2340.00
2019-04-25T12:18:33.425Z,2216.25
2019-04-25T12:19:35.876Z,2480.62
2019-04-25T12:20:33.684Z,2435.62
2019-04-25T12:21:31.179Z,2626.88
2019-04-25T12:22:31.150Z,2981.25
2019-04-25T12:23:31.140Z,3285.00
2019-04-25T12:24:31.135Z,3369.38
2019-04-25T12:25:31.117Z,3268.12
2019-04-25T12:26:31.113Z,3307.50
2019-04-25T12:27:31.108Z,3262.50
2019-04-25T12:28:31.092Z,3296.25
2019-04-25T12:29:31.102Z,3352.50
2019-04-25T12:30:38.192Z,2694.38
2019-04-25T12:31:32.064Z,1929.38
2019-04-25T12:32:31.060Z,1451.25
2019-04-25T12:33:31.053Z,900.00
2019-04-25T12:34:31.075Z,540.00
2019-04-25T12:35:31.031Z,444.38
2019-04-25T12:36:31.028Z,410.62
2019-04-25T12:37:31.011Z,388.12
2019-04-25T12:38:31.007Z,365.62
2019-04-25T12:39:31.006Z,354.38